sensor_id;sensor_type;location;lat;lon;timestamp;pressure;altitude;pressure_sealevel;temperature;humidity
59240;BME280;45010;53.640;10.578;2023-07-29T00:02:30;100091.66;;;24.49;45.57
59240;BME280;45010;53.640;10.578;2023-07-29T00:05:32;100092.72;;;24.48;45.36
59240;BME280;45010;53.640;10.578;2023-07-29T00:08:32;100098.06;;;24.48;45.61
59240;BME280;45010;53.640;10.578;2023-07-29T00:11:33;100098.06;;;24.48;45.68
59240;BME280;45010;53.640;10.578;2023-07-29T00:14:34;100095.38;;;24.48;45.61
59240;BME280;45010;53.640;10.578;2023-07-29T00:17:34;100094.56;;;24.48;45.64
59240;BME280;45010;53.640;10.578;2023-07-29T00:20:34;100095.38;;;24.48;45.58
59240;BME280;45010;53.640;10.578;2023-07-29T00:23:34;100068.28;;;24.34;45.60
59240;BME280;45010;53.640;10.578;2023-07-29T00:26:35;100078.56;;;24.48;45.95
59240;BME280;45010;53.640;10.578;2023-07-29T00:29:35;100074.06;;;24.48;45.53
59240;BME280;45010;53.640;10.578;2023-07-29T00:32:35;100079.41;;;24.48;45.36
59240;BME280;45010;53.640;10.578;2023-07-29T00:35:36;100074.06;;;24.48;45.40
59240;BME280;45010;53.640;10.578;2023-07-29T00:38:36;100062.59;;;24.48;45.61
59240;BME280;45010;53.640;10.578;2023-07-29T00:41:37;100063.41;;;24.48;45.43
59240;BME280;45010;53.640;10.578;2023-07-29T00:44:37;100064.19;;;24.49;45.88
59240;BME280;45010;53.640;10.578;2023-07-29T00:47:38;100047.34;;;24.43;45.63
59240;BME280;45010;53.640;10.578;2023-07-29T00:50:39;100054.34;;;24.49;45.53
59240;BME280;45010;53.640;10.578;2023-07-29T00:53:40;100052.75;;;24.48;45.56
59240;BME280;45010;53.640;10.578;2023-07-29T00:56:40;100042.88;;;24.49;45.40
59240;BME280;45010;53.640;10.578;2023-07-29T00:59:41;100049.03;;;24.49;45.67
59240;BME280;45010;53.640;10.578;2023-07-29T01:02:44;100042.88;;;24.49;45.58
59240;BME280;45010;53.640;10.578;2023-07-29T01:05:57;100037.53;;;24.49;45.50
59240;BME280;45010;53.640;10.578;2023-07-29T01:09:04;100036.75;;;24.48;45.62
59240;BME280;45010;53.640;10.578;2023-07-29T01:12:12;100046.34;;;24.49;45.78
59240;BME280;45010;53.640;10.578;2023-07-29T01:18:32;100036.75;;;24.48;45.70
59240;BME280;45010;53.640;10.578;2023-07-29T01:21:35;100032.22;;;24.49;45.55
59240;BME280;45010;53.640;10.578;2023-07-29T01:24:35;100039.66;;;24.47;45.59
59240;BME280;45010;53.640;10.578;2023-07-29T01:27:35;100037.53;;;24.49;45.55
59240;BME280;45010;53.640;10.578;2023-07-29T01:30:39;100016.41;;;24.42;45.71
59240;BME280;45010;53.640;10.578;2023-07-29T01:33:47;100026.09;;;24.48;45.58
59240;BME280;45010;53.640;10.578;2023-07-29T01:36:50;100016.22;;;24.49;45.49
59240;BME280;45010;53.640;10.578;2023-07-29T01:39:52;100011.69;;;24.49;45.51
59240;BME280;45010;53.640;10.578;2023-07-29T01:42:55;99998.78;;;24.41;45.59
59240;BME280;45010;53.640;10.578;2023-07-29T01:45:56;100004.75;;;24.48;45.67
59240;BME280;45010;53.640;10.578;2023-07-29T01:48:56;100010.88;;;24.49;45.72
59240;BME280;45010;53.640;10.578;2023-07-29T01:51:57;100004.75;;;24.48;46.02
59240;BME280;45010;53.640;10.578;2023-07-29T01:54:57;99994.88;;;24.49;45.64
59240;BME280;45010;53.640;10.578;2023-07-29T01:57:57;100001.03;;;24.49;45.84
59240;BME280;45010;53.640;10.578;2023-07-29T02:00:58;99999.44;;;24.48;45.50
59240;BME280;45010;53.640;10.578;2023-07-29T02:03:59;99994.03;;;24.43;45.66
59240;BME280;45010;53.640;10.578;2023-07-29T02:06:59;99996.50;;;24.50;45.75
59240;BME280;45010;53.640;10.578;2023-07-29T02:09:59;99994.09;;;24.48;45.74
59240;BME280;45010;53.640;10.578;2023-07-29T02:13:00;99999.44;;;24.48;46.14
59240;BME280;45010;53.640;10.578;2023-07-29T02:16:00;99997.56;;;24.49;45.76
59240;BME280;45010;53.640;10.578;2023-07-29T02:19:00;99994.09;;;24.48;45.72
59240;BME280;45010;53.640;10.578;2023-07-29T02:22:01;100000.22;;;24.49;45.67
59240;BME280;45010;53.640;10.578;2023-07-29T02:25:01;99986.53;;;24.40;45.76
59240;BME280;45010;53.640;10.578;2023-07-29T02:28:02;99995.72;;;24.49;45.96
59240;BME280;45010;53.640;10.578;2023-07-29T02:31:15;99985.22;;;24.42;45.79
59240;BME280;45010;53.640;10.578;2023-07-29T02:34:16;100000.22;;;24.49;45.77
59240;BME280;45010;53.640;10.578;2023-07-29T02:37:17;100005.56;;;24.49;45.50
59240;BME280;45010;53.640;10.578;2023-07-29T02:40:17;99995.72;;;24.49;45.50
59240;BME280;45010;53.640;10.578;2023-07-29T02:43:17;99994.88;;;24.49;45.85
59240;BME280;45010;53.640;10.578;2023-07-29T02:46:18;99995.72;;;24.49;45.71
59240;BME280;45010;53.640;10.578;2023-07-29T02:49:18;99992.22;;;24.49;45.68
59240;BME280;45010;53.640;10.578;2023-07-29T02:52:18;99991.44;;;24.48;45.49
59240;BME280;45010;53.640;10.578;2023-07-29T02:55:19;99994.88;;;24.49;45.62
59240;BME280;45010;53.640;10.578;2023-07-29T02:58:19;99975.31;;;24.38;45.77
59240;BME280;45010;53.640;10.578;2023-07-29T03:01:19;100004.75;;;24.48;45.63
59240;BME280;45010;53.640;10.578;2023-07-29T03:04:20;99993.28;;;24.48;45.67
59240;BME280;45010;53.640;10.578;2023-07-29T03:07:20;99991.44;;;24.48;45.86
59240;BME280;45010;53.640;10.578;2023-07-29T03:10:20;99985.03;;;24.49;45.82
59240;BME280;45010;53.640;10.578;2023-07-29T03:13:21;99990.38;;;24.49;45.64
59240;BME280;45010;53.640;10.578;2023-07-29T03:16:21;99980.78;;;24.48;45.74
59240;BME280;45010;53.640;10.578;2023-07-29T03:19:22;99978.13;;;24.48;45.82
59240;BME280;45010;53.640;10.578;2023-07-29T03:22:22;99979.13;;;24.47;45.80
59240;BME280;45010;53.640;10.578;2023-07-29T03:25:23;99977.06;;;24.49;45.82
59240;BME280;45010;53.640;10.578;2023-07-29T03:28:25;99963.13;;;24.42;45.80
59240;BME280;45010;53.640;10.578;2023-07-29T03:31:26;99973.56;;;24.49;45.50
59240;BME280;45010;53.640;10.578;2023-07-29T03:34:26;99979.72;;;24.49;45.61
59240;BME280;45010;53.640;10.578;2023-07-29T03:37:26;99970.84;;;24.43;45.85
59240;BME280;45010;53.640;10.578;2023-07-29T03:40:27;99985.03;;;24.49;46.04
59240;BME280;45010;53.640;10.578;2023-07-29T03:43:27;99978.91;;;24.49;45.72
59240;BME280;45010;53.640;10.578;2023-07-29T03:46:27;99988.78;;;24.48;45.83
59240;BME280;45010;53.640;10.578;2023-07-29T03:49:28;99985.03;;;24.49;45.84
59240;BME280;45010;53.640;10.578;2023-07-29T03:52:28;99975.44;;;24.48;45.84
59240;BME280;45010;53.640;10.578;2023-07-29T03:55:28;99983.44;;;24.48;45.77
59240;BME280;45010;53.640;10.578;2023-07-29T03:58:31;99973.81;;;24.47;45.92
59240;BME280;45010;53.640;10.578;2023-07-29T04:01:31;99972.78;;;24.48;45.90
59240;BME280;45010;53.640;10.578;2023-07-29T04:04:32;99971.72;;;24.49;45.88
59240;BME280;45010;53.640;10.578;2023-07-29T04:07:32;99967.44;;;24.48;45.99
59240;BME280;45010;53.640;10.578;2023-07-29T04:10:32;99966.38;;;24.49;45.88
59240;BME280;45010;53.640;10.578;2023-07-29T04:13:35;99962.13;;;24.48;46.00
59240;BME280;45010;53.640;10.578;2023-07-29T04:16:37;99963.72;;;24.49;45.91
59240;BME280;45010;53.640;10.578;2023-07-29T04:19:37;99962.13;;;24.48;45.95
59240;BME280;45010;53.640;10.578;2023-07-29T04:22:38;99967.44;;;24.48;45.99
59240;BME280;45010;53.640;10.578;2023-07-29T04:25:38;99972.78;;;24.48;45.90
59240;BME280;45010;53.640;10.578;2023-07-29T04:28:38;99965.56;;;24.49;45.97
59240;BME280;45010;53.640;10.578;2023-07-29T04:31:39;99956.78;;;24.48;45.90
59240;BME280;45010;53.640;10.578;2023-07-29T04:34:39;99951.47;;;24.48;46.13
59240;BME280;45010;53.640;10.578;2023-07-29T04:37:40;99962.91;;;24.49;45.92
59240;BME280;45010;53.640;10.578;2023-07-29T04:40:40;99954.91;;;24.49;45.86
59240;BME280;45010;53.640;10.578;2023-07-29T04:43:40;99951.47;;;24.48;45.89
59240;BME280;45010;53.640;10.578;2023-07-29T04:46:41;99936.25;;;24.49;45.89
59240;BME280;45010;53.640;10.578;2023-07-29T04:49:41;99941.59;;;24.49;45.95
59240;BME280;45010;53.640;10.578;2023-07-29T04:52:41;99943.47;;;24.48;45.84
59240;BME280;45010;53.640;10.578;2023-07-29T04:55:42;99946.13;;;24.48;46.06
59240;BME280;45010;53.640;10.578;2023-07-29T04:58:45;99949.81;;;24.47;45.97
59240;BME280;45010;53.640;10.578;2023-07-29T05:01:45;99956.78;;;24.48;45.35
59240;BME280;45010;53.640;10.578;2023-07-29T05:04:46;99962.13;;;24.48;45.97
59240;BME280;45010;53.640;10.578;2023-07-29T05:07:46;99962.13;;;24.48;45.97
59240;BME280;45010;53.640;10.578;2023-07-29T05:10:50;99953.31;;;24.48;45.97
59240;BME280;45010;53.640;10.578;2023-07-29T05:13:51;99951.47;;;24.48;45.97
59240;BME280;45010;53.640;10.578;2023-07-29T05:16:51;99951.47;;;24.48;46.00
59240;BME280;45010;53.640;10.578;2023-07-29T05:19:51;99947.72;;;24.49;46.04
59240;BME280;45010;53.640;10.578;2023-07-29T05:22:51;99944.25;;;24.49;46.05
59240;BME280;45010;53.640;10.578;2023-07-29T05:25:52;99947.97;;;24.48;46.18
59240;BME280;45010;53.640;10.578;2023-07-29T05:28:52;99946.91;;;24.49;45.93
59240;BME280;45010;53.640;10.578;2023-07-29T05:31:53;99953.06;;;24.49;45.93
59240;BME280;45010;53.640;10.578;2023-07-29T05:34:53;99946.13;;;24.48;46.11
59240;BME280;45010;53.640;10.578;2023-07-29T05:37:53;99948.78;;;24.48;46.10
59240;BME280;45010;53.640;10.578;2023-07-29T05:40:54;99946.13;;;24.48;45.99
59240;BME280;45010;53.640;10.578;2023-07-29T05:43:54;99948.78;;;24.48;46.41
59240;BME280;45010;53.640;10.578;2023-07-29T05:46:54;99942.41;;;24.49;45.83
59240;BME280;45010;53.640;10.578;2023-07-29T05:49:55;99940.78;;;24.48;46.05
59240;BME280;45010;53.640;10.578;2023-07-29T05:52:55;99942.41;;;24.49;46.14
59240;BME280;45010;53.640;10.578;2023-07-29T05:55:55;99935.47;;;24.48;45.95
59240;BME280;45010;53.640;10.578;2023-07-29T05:58:56;99937.06;;;24.49;46.07
59240;BME280;45010;53.640;10.578;2023-07-29T06:01:56;99938.13;;;24.48;45.83
59240;BME280;45010;53.640;10.578;2023-07-29T06:04:56;99935.47;;;24.48;45.57
59240;BME280;45010;53.640;10.578;2023-07-29T06:07:56;99940.78;;;24.48;45.93
59240;BME280;45010;53.640;10.578;2023-07-29T06:10:57;99939.72;;;24.49;46.00
59240;BME280;45010;53.640;10.578;2023-07-29T06:13:57;99921.94;;;24.33;46.13
59240;BME280;45010;53.640;10.578;2023-07-29T06:16:58;99946.13;;;24.48;46.10
59240;BME280;45010;53.640;10.578;2023-07-29T06:19:58;99941.59;;;24.49;46.23
59240;BME280;45010;53.640;10.578;2023-07-29T06:22:58;99942.41;;;24.49;46.02
59240;BME280;45010;53.640;10.578;2023-07-29T06:25:58;99940.78;;;24.48;46.10
59240;BME280;45010;53.640;10.578;2023-07-29T06:29:00;99935.47;;;24.48;46.00
59240;BME280;45010;53.640;10.578;2023-07-29T06:32:00;99935.47;;;24.48;45.86
59240;BME280;45010;53.640;10.578;2023-07-29T06:35:02;99933.59;;;24.49;46.07
59240;BME280;45010;53.640;10.578;2023-07-29T06:38:02;99935.47;;;24.48;45.83
59240;BME280;45010;53.640;10.578;2023-07-29T06:41:03;99927.41;;;24.43;45.71
59240;BME280;45010;53.640;10.578;2023-07-29T06:44:04;99930.13;;;24.48;46.27
59240;BME280;45010;53.640;10.578;2023-07-29T06:47:04;99930.13;;;24.48;45.93
59240;BME280;45010;53.640;10.578;2023-07-29T06:50:05;99925.84;;;24.47;45.96
59240;BME280;45010;53.640;10.578;2023-07-29T06:53:06;99923.16;;;24.47;45.96
59240;BME280;45010;53.640;10.578;2023-07-29T06:56:06;99923.16;;;24.47;46.00
59240;BME280;45010;53.640;10.578;2023-07-29T06:59:06;99936.25;;;24.49;45.84
59240;BME280;45010;53.640;10.578;2023-07-29T07:02:07;99934.41;;;24.49;45.71
59240;BME280;45010;53.640;10.578;2023-07-29T07:05:07;99929.00;;;24.44;45.85
59240;BME280;45010;53.640;10.578;2023-07-29T07:08:08;99941.59;;;24.49;45.74
59240;BME280;45010;53.640;10.578;2023-07-29T07:11:08;99930.13;;;24.48;45.93
59240;BME280;45010;53.640;10.578;2023-07-29T07:14:08;99929.06;;;24.49;45.90
59240;BME280;45010;53.640;10.578;2023-07-29T07:17:09;99931.75;;;24.49;45.76
59240;BME280;45010;53.640;10.578;2023-07-29T07:20:09;99931.75;;;24.49;45.84
59240;BME280;45010;53.640;10.578;2023-07-29T07:23:10;99923.75;;;24.49;45.64
59240;BME280;45010;53.640;10.578;2023-07-29T07:26:12;99925.34;;;24.50;45.25
59240;BME280;45010;53.640;10.578;2023-07-29T07:29:12;99933.34;;;24.50;45.74
59240;BME280;45010;53.640;10.578;2023-07-29T07:32:12;99937.06;;;24.49;45.74
59240;BME280;45010;53.640;10.578;2023-07-29T07:35:13;99937.06;;;24.49;45.68
59240;BME280;45010;53.640;10.578;2023-07-29T07:38:13;99931.75;;;24.49;45.78
59240;BME280;45010;53.640;10.578;2023-07-29T07:41:14;99925.34;;;24.50;45.73
59240;BME280;45010;53.640;10.578;2023-07-29T07:44:14;99932.53;;;24.50;46.03
59240;BME280;45010;53.640;10.578;2023-07-29T07:47:17;99928.00;;;24.50;45.95
59240;BME280;45010;53.640;10.578;2023-07-29T07:50:18;99929.88;;;24.50;45.74
59240;BME280;45010;53.640;10.578;2023-07-29T07:53:18;99918.16;;;24.51;45.63
59240;BME280;45010;53.640;10.578;2023-07-29T07:56:20;99912.03;;;24.50;45.25
59240;BME280;45010;53.640;10.578;2023-07-29T07:59:20;99921.06;;;24.49;45.70
59240;BME280;45010;53.640;10.578;2023-07-29T08:02:20;99919.19;;;24.50;45.67
59240;BME280;45010;53.640;10.578;2023-07-29T08:05:20;99925.34;;;24.50;45.62
59240;BME280;45010;53.640;10.578;2023-07-29T08:08:21;99922.69;;;24.50;45.55
59240;BME280;45010;53.640;10.578;2023-07-29T08:11:21;99900.19;;;24.41;45.66
59240;BME280;45010;53.640;10.578;2023-07-29T08:14:22;99910.13;;;24.45;45.58
59240;BME280;45010;53.640;10.578;2023-07-29T08:17:22;99922.69;;;24.50;45.62
59240;BME280;45010;53.640;10.578;2023-07-29T08:20:22;99928.00;;;24.50;45.77
59240;BME280;45010;53.640;10.578;2023-07-29T08:23:26;99921.63;;;24.51;45.69
59240;BME280;45010;53.640;10.578;2023-07-29T08:26:26;99915.22;;;24.52;45.57
59240;BME280;45010;53.640;10.578;2023-07-29T08:29:27;99907.75;;;24.49;45.68
59240;BME280;45010;53.640;10.578;2023-07-29T08:32:27;99917.34;;;24.50;45.68
59240;BME280;45010;53.640;10.578;2023-07-29T08:35:27;99918.97;;;24.51;45.62
59240;BME280;45010;53.640;10.578;2023-07-29T08:38:28;99920.56;;;24.52;45.60
59240;BME280;45010;53.640;10.578;2023-07-29T08:41:37;99916.53;;;24.50;45.64
59240;BME280;45010;53.640;10.578;2023-07-29T08:44:43;99910.91;;;24.46;45.63
59240;BME280;45010;53.640;10.578;2023-07-29T08:47:43;99920.56;;;24.52;45.38
59240;BME280;45010;53.640;10.578;2023-07-29T08:50:44;99926.72;;;24.53;45.73
59240;BME280;45010;53.640;10.578;2023-07-29T08:53:44;99915.22;;;24.52;45.73
59240;BME280;45010;53.640;10.578;2023-07-29T08:56:45;99913.63;;;24.51;45.67
59240;BME280;45010;53.640;10.578;2023-07-29T08:59:46;99919.78;;;24.52;45.66
59240;BME280;45010;53.640;10.578;2023-07-29T09:02:46;99920.56;;;24.52;45.67
59240;BME280;45010;53.640;10.578;2023-07-29T09:05:47;99884.16;;;24.36;45.67
59240;BME280;45010;53.640;10.578;2023-07-29T09:08:49;99908.84;;;24.53;45.66
59240;BME280;45010;53.640;10.578;2023-07-29T09:11:50;99910.72;;;24.53;45.75
59240;BME280;45010;53.640;10.578;2023-07-29T09:14:53;99906.16;;;24.53;45.62
59240;BME280;45010;53.640;10.578;2023-07-29T09:17:56;99900.84;;;24.53;45.54
59240;BME280;45010;53.640;10.578;2023-07-29T09:20:59;99902.47;;;24.54;45.66
59240;BME280;45010;53.640;10.578;2023-07-29T09:24:03;99906.16;;;24.53;45.67
59240;BME280;45010;53.640;10.578;2023-07-29T09:27:05;99902.47;;;24.54;45.57
59240;BME280;45010;53.640;10.578;2023-07-29T09:30:06;99907.22;;;24.52;45.55
59240;BME280;45010;53.640;10.578;2023-07-29T09:33:06;99896.28;;;24.49;45.58
59240;BME280;45010;53.640;10.578;2023-07-29T09:36:10;99897.16;;;24.54;45.85
59240;BME280;45010;53.640;10.578;2023-07-29T09:39:11;99896.03;;;24.50;45.64
59240;BME280;45010;53.640;10.578;2023-07-29T09:42:22;99907.81;;;24.54;45.79
59240;BME280;45010;53.640;10.578;2023-07-29T09:45:24;99898.16;;;24.48;45.67
59240;BME280;45010;53.640;10.578;2023-07-29T09:48:25;99899.81;;;24.54;45.72
59240;BME280;45010;53.640;10.578;2023-07-29T09:51:25;99902.47;;;24.54;45.66
59240;BME280;45010;53.640;10.578;2023-07-29T09:54:25;99891.81;;;24.54;45.72
59240;BME280;45010;53.640;10.578;2023-07-29T09:57:26;99892.59;;;24.55;45.82
59240;BME280;45010;53.640;10.578;2023-07-29T10:00:28;99884.59;;;24.55;45.88
59240;BME280;45010;53.640;10.578;2023-07-29T10:03:28;99890.75;;;24.55;45.71
59240;BME280;45010;53.640;10.578;2023-07-29T10:06:30;99880.09;;;24.55;45.63
59240;BME280;45010;53.640;10.578;2023-07-29T10:09:30;99879.50;;;24.48;45.82
59240;BME280;45010;53.640;10.578;2023-07-29T10:12:32;99881.94;;;24.55;45.79
59240;BME280;45010;53.640;10.578;2023-07-29T10:15:32;99886.22;;;24.56;45.71
59240;BME280;45010;53.640;10.578;2023-07-29T10:18:33;99874.94;;;24.49;45.81
59240;BME280;45010;53.640;10.578;2023-07-29T10:21:36;99884.34;;;24.56;45.85
59240;BME280;45010;53.640;10.578;2023-07-29T10:24:39;99891.28;;;24.57;45.75
59240;BME280;45010;53.640;10.578;2023-07-29T10:27:43;99896.63;;;24.57;45.78
59240;BME280;45010;53.640;10.578;2023-07-29T10:30:47;99901.16;;;24.57;45.83
59240;BME280;45010;53.640;10.578;2023-07-29T10:33:48;99897.69;;;24.56;45.87
59240;BME280;45010;53.640;10.578;2023-07-29T10:36:50;99896.63;;;24.57;45.85
59240;BME280;45010;53.640;10.578;2023-07-29T10:39:55;99901.16;;;24.57;45.91
59240;BME280;45010;53.640;10.578;2023-07-29T10:43:03;99896.63;;;24.57;45.93
59240;BME280;45010;53.640;10.578;2023-07-29T10:46:16;99893.97;;;24.57;45.87
59240;BME280;45010;53.640;10.578;2023-07-29T10:49:23;99882.75;;;24.55;45.93
59240;BME280;45010;53.640;10.578;2023-07-29T10:52:40;99873.41;;;24.53;46.00
59240;BME280;45010;53.640;10.578;2023-07-29T10:55:43;99884.91;;;24.58;45.94
59240;BME280;45010;53.640;10.578;2023-07-29T10:58:44;99883.28;;;24.57;45.94
59240;BME280;45010;53.640;10.578;2023-07-29T11:02:17;99869.13;;;24.52;45.89
59240;BME280;45010;53.640;10.578;2023-07-29T11:05:18;99876.91;;;24.58;46.18
59240;BME280;45010;53.640;10.578;2023-07-29T11:08:27;99871.56;;;24.58;46.06
59240;BME280;45010;53.640;10.578;2023-07-29T11:11:28;99867.88;;;24.60;46.02
59240;BME280;45010;53.640;10.578;2023-07-29T11:14:29;99867.88;;;24.60;45.91
59240;BME280;45010;53.640;10.578;2023-07-29T11:17:33;99858.19;;;24.53;45.92
59240;BME280;45010;53.640;10.578;2023-07-29T11:20:36;99867.88;;;24.60;45.97
59240;BME280;45010;53.640;10.578;2023-07-29T11:23:36;99857.22;;;24.60;45.95
59240;BME280;45010;53.640;10.578;2023-07-29T11:26:37;99859.88;;;24.60;45.95
59240;BME280;45010;53.640;10.578;2023-07-29T11:29:37;99862.53;;;24.60;45.91
59240;BME280;45010;53.640;10.578;2023-07-29T11:32:39;99857.94;;;24.55;46.00
59240;BME280;45010;53.640;10.578;2023-07-29T11:35:40;99857.22;;;24.60;46.09
59240;BME280;45010;53.640;10.578;2023-07-29T11:38:41;99859.59;;;24.61;45.95
59240;BME280;45010;53.640;10.578;2023-07-29T11:41:42;99861.47;;;24.61;45.99
59240;BME280;45010;53.640;10.578;2023-07-29T11:44:42;99849.72;;;24.56;45.77
59240;BME280;45010;53.640;10.578;2023-07-29T11:47:43;99863.09;;;24.62;45.98
59240;BME280;45010;53.640;10.578;2023-07-29T11:50:43;99864.69;;;24.63;45.84
59240;BME280;45010;53.640;10.578;2023-07-29T11:53:45;99867.34;;;24.63;45.94
59240;BME280;45010;53.640;10.578;2023-07-29T11:56:45;99860.97;;;24.64;46.01
59240;BME280;45010;53.640;10.578;2023-07-29T11:59:46;99869.78;;;24.64;46.04
59240;BME280;45010;53.640;10.578;2023-07-29T12:02:48;99861.44;;;24.55;45.92
59240;BME280;45010;53.640;10.578;2023-07-29T12:05:49;99867.91;;;24.65;45.99
59240;BME280;45010;53.640;10.578;2023-07-29T12:08:50;99870.56;;;24.65;46.02
59240;BME280;45010;53.640;10.578;2023-07-29T12:11:50;99870.56;;;24.65;45.92
59240;BME280;45010;53.640;10.578;2023-07-29T12:14:54;99857.69;;;24.56;46.07
59240;BME280;45010;53.640;10.578;2023-07-29T12:17:55;99872.97;;;24.66;46.01
59240;BME280;45010;53.640;10.578;2023-07-29T12:20:56;99871.38;;;24.65;45.95
59240;BME280;45010;53.640;10.578;2023-07-29T12:23:57;99877.53;;;24.66;45.93
59240;BME280;45010;53.640;10.578;2023-07-29T12:26:57;99863.03;;;24.56;45.94
59240;BME280;45010;53.640;10.578;2023-07-29T12:29:57;99874.88;;;24.66;46.04
59240;BME280;45010;53.640;10.578;2023-07-29T12:33:00;99876.72;;;24.65;46.00
59240;BME280;45010;53.640;10.578;2023-07-29T12:36:01;99867.91;;;24.65;46.11
59240;BME280;45010;53.640;10.578;2023-07-29T12:39:02;99867.66;;;24.66;45.96
59240;BME280;45010;53.640;10.578;2023-07-29T12:42:03;99841.91;;;24.50;45.85
59240;BME280;45010;53.640;10.578;2023-07-29T12:45:04;99868.47;;;24.67;46.01
59240;BME280;45010;53.640;10.578;2023-07-29T12:48:04;99855.34;;;24.60;45.95
59240;BME280;45010;53.640;10.578;2023-07-29T12:51:05;99865.00;;;24.66;46.05
59240;BME280;45010;53.640;10.578;2023-07-29T12:54:05;99859.91;;;24.65;46.16
59240;BME280;45010;53.640;10.578;2023-07-29T12:57:06;99857.81;;;24.67;46.05
59240;BME280;45010;53.640;10.578;2023-07-29T13:00:06;99850.59;;;24.67;45.98
59240;BME280;45010;53.640;10.578;2023-07-29T13:03:09;99850.59;;;24.67;45.88
59240;BME280;45010;53.640;10.578;2023-07-29T13:06:09;99855.69;;;24.69;45.91
59240;BME280;45010;53.640;10.578;2023-07-29T13:09:09;99846.03;;;24.63;45.95
59240;BME280;45010;53.640;10.578;2023-07-29T13:12:10;99858.34;;;24.69;45.96
59240;BME280;45010;53.640;10.578;2023-07-29T13:15:10;99858.34;;;24.69;45.97
59240;BME280;45010;53.640;10.578;2023-07-29T13:18:10;99857.53;;;24.68;45.98
59240;BME280;45010;53.640;10.578;2023-07-29T13:21:11;99853.00;;;24.69;46.07
59240;BME280;45010;53.640;10.578;2023-07-29T13:24:11;99861.00;;;24.69;45.97
59240;BME280;45010;53.640;10.578;2023-07-29T13:27:11;99827.25;;;24.52;45.95
59240;BME280;45010;53.640;10.578;2023-07-29T13:30:12;99843.41;;;24.68;45.92
59240;BME280;45010;53.640;10.578;2023-07-29T13:33:12;99854.06;;;24.68;45.99
59240;BME280;45010;53.640;10.578;2023-07-29T13:36:12;99860.19;;;24.68;45.88
59240;BME280;45010;53.640;10.578;2023-07-29T13:39:13;99847.16;;;24.67;46.01
59240;BME280;45010;53.640;10.578;2023-07-29T13:42:13;99853.00;;;24.69;46.00
59240;BME280;45010;53.640;10.578;2023-07-29T13:45:13;99850.34;;;24.69;46.18
59240;BME280;45010;53.640;10.578;2023-07-29T13:48:14;99850.34;;;24.69;45.96
59240;BME280;45010;53.640;10.578;2023-07-29T13:51:14;99857.28;;;24.70;45.98
59240;BME280;45010;53.640;10.578;2023-07-29T13:54:14;99861.81;;;24.69;45.91
59240;BME280;45010;53.640;10.578;2023-07-29T13:57:15;99861.00;;;24.69;46.05
59240;BME280;45010;53.640;10.578;2023-07-29T14:00:15;99868.19;;;24.68;46.15
59240;BME280;45010;53.640;10.578;2023-07-29T14:03:16;99861.00;;;24.69;46.34
59240;BME280;45010;53.640;10.578;2023-07-29T14:06:16;99867.16;;;24.69;46.28
59240;BME280;45010;53.640;10.578;2023-07-29T14:09:16;99864.22;;;24.71;46.23
59240;BME280;45010;53.640;10.578;2023-07-29T14:12:17;99860.53;;;24.72;46.19
59240;BME280;45010;53.640;10.578;2023-07-29T14:15:17;99873.84;;;24.72;46.33
59240;BME280;45010;53.640;10.578;2023-07-29T14:18:17;99876.53;;;24.72;46.29
59240;BME280;45010;53.640;10.578;2023-07-29T14:21:18;99876.53;;;24.72;46.39
59240;BME280;45010;53.640;10.578;2023-07-29T14:24:18;99872.78;;;24.73;46.37
59240;BME280;45010;53.640;10.578;2023-07-29T14:27:19;99875.47;;;24.73;46.36
59240;BME280;45010;53.640;10.578;2023-07-29T14:30:20;99863.13;;;24.67;46.29
59240;BME280;45010;53.640;10.578;2023-07-29T14:33:20;99865.84;;;24.72;46.59
59240;BME280;45010;53.640;10.578;2023-07-29T14:36:21;99870.66;;;24.75;46.30
59240;BME280;45010;53.640;10.578;2023-07-29T14:39:21;99874.41;;;24.74;46.24
59240;BME280;45010;53.640;10.578;2023-07-29T14:42:21;99875.19;;;24.75;46.33
59240;BME280;45010;53.640;10.578;2023-07-29T14:45:22;99871.47;;;24.76;46.23
59240;BME280;45010;53.640;10.578;2023-07-29T14:48:23;99866.16;;;24.76;46.21
59240;BME280;45010;53.640;10.578;2023-07-29T14:51:23;99866.94;;;24.76;46.22
59240;BME280;45010;53.640;10.578;2023-07-29T14:54:23;99859.75;;;24.77;46.24
59240;BME280;45010;53.640;10.578;2023-07-29T14:57:24;99863.22;;;24.77;46.10
59240;BME280;45010;53.640;10.578;2023-07-29T15:00:24;99860.53;;;24.77;46.34
59240;BME280;45010;53.640;10.578;2023-07-29T15:03:25;99863.22;;;24.77;46.25
59240;BME280;45010;53.640;10.578;2023-07-29T15:06:25;99856.03;;;24.78;46.21
59240;BME280;45010;53.640;10.578;2023-07-29T15:09:25;99838.09;;;24.68;46.29
59240;BME280;45010;53.640;10.578;2023-07-29T15:12:25;99864.84;;;24.78;46.43
59240;BME280;45010;53.640;10.578;2023-07-29T15:15:26;99866.44;;;24.79;46.25
59240;BME280;45010;53.640;10.578;2023-07-29T15:18:26;99873.38;;;24.80;46.38
59240;BME280;45010;53.640;10.578;2023-07-29T15:21:30;99872.56;;;24.80;46.72
59240;BME280;45010;53.640;10.578;2023-07-29T15:24:30;99866.44;;;24.79;46.67
59240;BME280;45010;53.640;10.578;2023-07-29T15:27:31;99867.00;;;24.81;46.42
59240;BME280;45010;53.640;10.578;2023-07-29T15:30:31;99869.69;;;24.81;46.74
59240;BME280;45010;53.640;10.578;2023-07-29T15:33:35;99868.91;;;24.81;46.80
59240;BME280;45010;53.640;10.578;2023-07-29T15:36:35;99862.13;;;24.73;46.81
59240;BME280;45010;53.640;10.578;2023-07-29T15:39:35;99881.97;;;24.82;46.95
59240;BME280;45010;53.640;10.578;2023-07-29T15:42:36;99883.56;;;24.83;46.76
59240;BME280;45010;53.640;10.578;2023-07-29T15:45:36;99880.88;;;24.83;46.88
59240;BME280;45010;53.640;10.578;2023-07-29T15:48:36;99888.88;;;24.83;46.88